createdAt,value
2022-12-27T00:02:21.717Z,7.03
2022-12-27T00:05:43.686Z,7.05
2022-12-27T00:09:04.649Z,7.02
2022-12-27T00:12:24.617Z,6.91
2022-12-27T00:15:35.404Z,6.65
2022-12-27T00:18:43.193Z,6.64
2022-12-27T00:21:46.664Z,6.63
2022-12-27T00:24:55.979Z,6.65
2022-12-27T00:28:18.471Z,6.73
2022-12-27T00:31:52.507Z,6.81
2022-12-27T00:35:12.572Z,6.94
2022-12-27T00:38:37.196Z,6.97
2022-12-27T00:41:53.618Z,6.93
2022-12-27T00:45:02.949Z,6.71
2022-12-27T00:48:25.427Z,6.59
2022-12-27T00:52:01.445Z,6.72
2022-12-27T00:55:15.165Z,6.94
2022-12-27T00:58:40.842Z,6.98
2022-12-27T01:01:53.445Z,6.91
2022-12-27T01:04:57.740Z,6.82
2022-12-27T01:08:07.870Z,7.04
2022-12-27T01:11:15.443Z,7.04
2022-12-27T01:14:18.723Z,7.14
2022-12-27T01:17:26.969Z,7.14
2022-12-27T01:20:38.334Z,7.20
2022-12-27T01:24:02.331Z,7.23
2022-12-27T01:27:31.295Z,7.27
2022-12-27T01:30:54.279Z,7.34
2022-12-27T01:34:05.203Z,7.41
2022-12-27T01:37:07.987Z,7.44
2022-12-27T01:40:18.926Z,7.43
2022-12-27T01:43:52.283Z,7.50
2022-12-27T01:47:32.289Z,7.64
2022-12-27T01:51:10.286Z,7.66
2022-12-27T01:54:31.242Z,7.81
2022-12-27T01:57:53.258Z,7.82
2022-12-27T02:01:17.716Z,7.94
2022-12-27T02:04:39.436Z,8.47
2022-12-27T02:08:15.520Z,9.22
2022-12-27T02:11:48.367Z,9.68
2022-12-27T02:14:53.080Z,9.97
2022-12-27T02:18:10.229Z,10.09
2022-12-27T02:21:33.392Z,10.18
2022-12-27T02:25:40.227Z,10.10
2022-12-27T02:29:23.062Z,10.07
2022-12-27T02:32:56.115Z,10.10
2022-12-27T02:36:13.272Z,10.06
2022-12-27T02:39:19.499Z,10.09
2022-12-27T02:42:47.168Z,10.02
2022-12-27T02:46:28.534Z,9.91
2022-12-27T02:49:56.643Z,10.00
2022-12-27T02:53:08.142Z,9.97
2022-12-27T02:56:52.149Z,9.82
2022-12-27T03:00:41.947Z,9.81
2022-12-27T03:04:10.177Z,9.90
2022-12-27T03:07:48.867Z,9.88
2022-12-27T03:11:25.911Z,9.96
2022-12-27T03:15:09.100Z,10.00
2022-12-27T03:18:22.784Z,9.85
2022-12-27T03:22:02.688Z,9.64
2022-12-27T03:25:25.669Z,9.47
2022-12-27T03:28:52.996Z,9.30
2022-12-27T03:32:18.475Z,9.20
2022-12-27T03:35:28.492Z,9.15
2022-12-27T03:38:43.550Z,9.06
2022-12-27T03:42:13.204Z,8.86
2022-12-27T03:45:21.838Z,8.67
2022-12-27T03:48:29.295Z,8.45
2022-12-27T03:52:21.215Z,8.26
2022-12-27T03:55:33.170Z,8.19
2022-12-27T03:58:37.500Z,8.29
2022-12-27T04:01:54.168Z,8.69
2022-12-27T04:04:57.120Z,9.08
2022-12-27T04:08:32.963Z,9.30
2022-12-27T04:12:12.767Z,9.75
2022-12-27T04:15:45.644Z,9.86
2022-12-27T04:19:08.262Z,9.87
2022-12-27T04:22:32.960Z,9.88
2022-12-27T04:25:55.014Z,9.71
2022-12-27T04:29:20.003Z,9.97
2022-12-27T04:32:42.755Z,9.98
2022-12-27T04:35:49.630Z,10.11
2022-12-27T04:38:56.719Z,10.46
2022-12-27T04:42:33.065Z,10.52
2022-12-27T04:45:57.825Z,10.46
2022-12-27T04:49:31.889Z,10.59
2022-12-27T04:52:53.912Z,10.60
2022-12-27T04:55:57.680Z,10.44
2022-12-27T04:59:30.020Z,10.51
2022-12-27T05:02:36.806Z,10.30
2022-12-27T05:05:51.014Z,10.26
2022-12-27T05:09:23.128Z,10.25
2022-12-27T05:12:49.048Z,10.26
2022-12-27T05:15:55.613Z,10.07
2022-12-27T05:19:10.946Z,10.03
2022-12-27T05:22:41.241Z,10.23
2022-12-27T05:25:54.125Z,9.91
2022-12-27T05:28:58.838Z,9.87
2022-12-27T05:32:13.095Z,9.71
2022-12-27T05:35:30.413Z,9.51
2022-12-27T05:38:51.667Z,9.33
2022-12-27T05:42:14.738Z,9.39
2022-12-27T05:45:37.545Z,9.46
2022-12-27T05:48:59.491Z,9.43
2022-12-27T05:52:21.478Z,9.33
2022-12-27T05:55:44.692Z,9.46
2022-12-27T05:58:55.545Z,9.36
2022-12-27T06:02:18.752Z,9.31
2022-12-27T06:05:51.619Z,9.34
2022-12-27T06:09:14.763Z,9.35
2022-12-27T06:12:35.717Z,9.03
2022-12-27T06:15:51.603Z,8.92
2022-12-27T06:19:20.669Z,8.73
2022-12-27T06:22:43.506Z,8.54
2022-12-27T06:26:05.532Z,8.71
2022-12-27T06:29:28.626Z,8.68
2022-12-27T06:32:53.623Z,8.66
2022-12-27T06:36:12.805Z,8.77
2022-12-27T06:39:35.558Z,8.95
2022-12-27T06:42:58.632Z,8.96
2022-12-27T06:46:17.001Z,8.94
2022-12-27T06:49:41.573Z,9.03
2022-12-27T06:52:58.668Z,9.34
2022-12-27T06:56:23.561Z,9.43
2022-12-27T06:59:51.002Z,9.38
2022-12-27T07:03:09.732Z,9.44
2022-12-27T07:06:30.540Z,9.55
2022-12-27T07:09:33.751Z,9.71
2022-12-27T07:12:37.805Z,9.77
2022-12-27T07:15:47.087Z,9.84
2022-12-27T07:19:12.441Z,9.83
2022-12-27T07:22:39.154Z,9.82
2022-12-27T07:25:49.106Z,9.76
2022-12-27T07:29:09.501Z,9.78
2022-12-27T07:32:19.115Z,9.75
2022-12-27T07:35:29.918Z,9.86
2022-12-27T07:38:34.944Z,9.79
2022-12-27T07:41:41.878Z,9.79
2022-12-27T07:44:44.563Z,9.76
2022-12-27T07:47:59.289Z,9.76
2022-12-27T07:51:21.218Z,9.80
2022-12-27T07:54:42.270Z,9.78
2022-12-27T07:57:58.693Z,9.78
2022-12-27T08:01:21.529Z,9.88
2022-12-27T08:04:38.388Z,10.07
2022-12-27T08:08:01.308Z,10.26
2022-12-27T08:11:18.001Z,10.16
2022-12-27T08:14:34.376Z,9.82
2022-12-27T08:18:10.304Z,9.76
2022-12-27T08:21:38.336Z,9.66
2022-12-27T08:25:04.399Z,9.51
2022-12-27T08:28:11.558Z,9.32
2022-12-27T08:31:15.525Z,9.25
2022-12-27T08:34:20.186Z,9.15
2022-12-27T08:37:36.613Z,9.28
2022-12-27T08:41:00.400Z,9.34
2022-12-27T08:44:12.898Z,9.30
2022-12-27T08:47:15.725Z,9.41
2022-12-27T08:50:18.553Z,9.35
2022-12-27T08:53:41.337Z,9.23
2022-12-27T08:57:05.255Z,9.30
2022-12-27T09:00:27.254Z,9.31
2022-12-27T09:03:51.222Z,9.33
2022-12-27T09:07:13.238Z,9.36
2022-12-27T09:10:33.179Z,9.40
2022-12-27T09:13:56.202Z,9.38
2022-12-27T09:17:13.877Z,9.33
2022-12-27T09:20:34.264Z,9.32
2022-12-27T09:23:55.430Z,9.29
2022-12-27T09:27:15.155Z,9.32
2022-12-27T09:30:35.296Z,9.32
2022-12-27T09:33:42.470Z,9.25
2022-12-27T09:36:45.257Z,9.20
2022-12-27T09:39:54.856Z,9.20
2022-12-27T09:43:27.205Z,9.13
2022-12-27T09:46:54.879Z,9.10
2022-12-27T09:50:15.035Z,9.10
2022-12-27T09:53:41.165Z,9.06
2022-12-27T09:57:18.496Z,9.12
2022-12-27T10:00:34.199Z,8.93
2022-12-27T10:03:49.946Z,8.94
2022-12-27T10:07:21.003Z,8.79
2022-12-27T10:10:28.491Z,8.79
2022-12-27T10:14:01.015Z,8.59
2022-12-27T10:17:41.289Z,9.08
2022-12-27T10:20:59.598Z,8.95
2022-12-27T10:24:31.428Z,8.93
2022-12-27T10:27:35.298Z,8.97
2022-12-27T10:30:43.193Z,8.83
2022-12-27T10:34:10.348Z,8.84
2022-12-27T10:37:28.050Z,8.71
2022-12-27T10:40:58.890Z,8.65
2022-12-27T10:44:13.184Z,8.62
2022-12-27T10:47:17.066Z,8.57
2022-12-27T10:50:23.548Z,8.63
2022-12-27T10:53:33.014Z,8.57
2022-12-27T10:56:44.506Z,8.63
2022-12-27T11:00:21.739Z,8.43
2022-12-27T11:03:43.618Z,8.63
2022-12-27T11:07:03.695Z,8.45
2022-12-27T11:10:23.785Z,8.59
2022-12-27T11:13:41.820Z,8.54
2022-12-27T11:17:07.461Z,8.47
2022-12-27T11:20:26.611Z,8.50
2022-12-27T11:23:53.471Z,8.54
2022-12-27T11:27:15.417Z,8.33
2022-12-27T11:30:43.587Z,8.41
2022-12-27T11:34:00.442Z,8.53
2022-12-27T11:37:22.637Z,8.46
2022-12-27T11:40:43.403Z,8.17
2022-12-27T11:44:19.783Z,8.36
2022-12-27T11:47:50.162Z,8.24
2022-12-27T11:51:16.998Z,8.18
2022-12-27T11:54:40.810Z,7.96
2022-12-27T11:58:13.715Z,8.11
2022-12-27T12:01:42.017Z,8.35
2022-12-27T12:05:01.116Z,8.19
2022-12-27T12:09:00.739Z,8.48
2022-12-27T12:12:48.603Z,8.23
2022-12-27T12:16:19.797Z,8.33
2022-12-27T12:20:10.991Z,8.44
2022-12-27T12:23:32.368Z,8.47
2022-12-27T12:26:55.661Z,8.38
2022-12-27T12:30:27.026Z,8.31
2022-12-27T12:33:43.208Z,8.36
2022-12-27T12:37:14.604Z,8.32
2022-12-27T12:41:01.688Z,8.25
2022-12-27T12:44:43.633Z,8.17
2022-12-27T12:48:20.724Z,8.01
2022-12-27T12:52:18.779Z,7.99
2022-12-27T12:55:38.452Z,7.90
2022-12-27T12:59:17.500Z,7.83
2022-12-27T13:03:04.869Z,7.48
2022-12-27T13:06:23.580Z,7.57
2022-12-27T13:09:50.420Z,7.31
2022-12-27T13:13:14.628Z,7.51
2022-12-27T13:16:52.752Z,7.46
2022-12-27T13:20:11.043Z,7.22
2022-12-27T13:23:44.816Z,7.37
2022-12-27T13:27:54.199Z,7.45
2022-12-27T13:31:48.514Z,7.40
2022-12-27T13:35:23.728Z,7.34
2022-12-27T13:38:50.789Z,7.29
2022-12-27T13:42:23.972Z,7.27
2022-12-27T13:45:52.089Z,7.21
2022-12-27T13:49:29.043Z,7.18
2022-12-27T13:53:03.472Z,7.08
2022-12-27T13:56:53.905Z,7.04
2022-12-27T14:00:09.164Z,6.84
2022-12-27T14:03:35.034Z,6.89
2022-12-27T14:07:20.691Z,6.97
2022-12-27T14:10:37.760Z,6.89
2022-12-27T14:13:51.571Z,6.86
2022-12-27T14:17:06.300Z,6.94
2022-12-27T14:20:28.334Z,6.91
2022-12-27T14:24:01.312Z,6.84
2022-12-27T14:27:20.770Z,6.85
2022-12-27T14:30:38.102Z,6.77
2022-12-27T14:33:50.594Z,6.62
2022-12-27T14:37:05.858Z,6.70
2022-12-27T14:40:36.981Z,6.68
2022-12-27T14:44:02.642Z,6.54
2022-12-27T14:47:38.985Z,6.61
2022-12-27T14:51:02.923Z,6.48
2022-12-27T14:54:27.516Z,6.38
2022-12-27T14:57:51.648Z,6.44
2022-12-27T15:01:21.344Z,6.31
2022-12-27T15:04:49.809Z,6.13
2022-12-27T15:08:40.320Z,6.27
2022-12-27T15:12:22.626Z,6.21
2022-12-27T15:15:37.680Z,6.12
2022-12-27T15:19:14.302Z,6.17
2022-12-27T15:22:58.562Z,6.15
2022-12-27T15:26:40.235Z,6.03
2022-12-27T15:30:05.925Z,5.99
2022-12-27T15:33:37.998Z,5.94
2022-12-27T15:36:51.202Z,5.95
2022-12-27T15:39:54.382Z,5.87
2022-12-27T15:43:04.253Z,5.93
2022-12-27T15:46:46.658Z,5.76
2022-12-27T15:50:20.893Z,5.70
2022-12-27T15:53:39.861Z,5.65
2022-12-27T15:57:04.050Z,5.59
2022-12-27T16:00:33.376Z,5.61
2022-12-27T16:03:53.061Z,5.68
2022-12-27T16:07:02.242Z,5.58
2022-12-27T16:10:30.137Z,5.71
2022-12-27T16:13:49.843Z,5.68
2022-12-27T16:17:52.288Z,5.42
2022-12-27T16:21:21.201Z,5.35
2022-12-27T16:24:35.289Z,5.25
2022-12-27T16:27:43.477Z,5.15
2022-12-27T16:30:50.257Z,5.33
2022-12-27T16:34:11.823Z,5.26
2022-12-27T16:37:44.485Z,5.44
2022-12-27T16:41:15.194Z,5.54
2022-12-27T16:44:25.298Z,5.60
2022-12-27T16:47:54.173Z,5.60
2022-12-27T16:51:15.990Z,5.63
2022-12-27T16:55:04.231Z,5.66
2022-12-27T16:58:24.666Z,5.61
2022-12-27T17:01:34.477Z,5.73
2022-12-27T17:05:00.872Z,5.73
2022-12-27T17:08:18.620Z,5.65
2022-12-27T17:11:29.831Z,5.60
2022-12-27T17:14:46.108Z,5.66
2022-12-27T17:18:05.219Z,5.63
2022-12-27T17:21:37.538Z,5.61
2022-12-27T17:24:51.166Z,5.56
2022-12-27T17:28:31.007Z,5.59
2022-12-27T17:32:02.752Z,5.57
2022-12-27T17:35:29.197Z,5.47
2022-12-27T17:39:08.853Z,5.55
2022-12-27T17:42:49.418Z,5.49
2022-12-27T17:46:16.366Z,5.37
2022-12-27T17:49:29.219Z,5.28
2022-12-27T17:52:55.578Z,5.23
2022-12-27T17:56:41.802Z,5.04
2022-12-27T18:00:02.949Z,4.73
2022-12-27T18:03:27.149Z,4.88
2022-12-27T18:06:30.808Z,4.72
2022-12-27T18:09:39.844Z,4.75
2022-12-27T18:12:53.644Z,4.74
2022-12-27T18:16:16.686Z,4.66
2022-12-27T18:19:31.149Z,4.54
2022-12-27T18:22:54.691Z,4.60
2022-12-27T18:26:24.481Z,4.49
2022-12-27T18:29:45.493Z,4.37
2022-12-27T18:33:07.539Z,4.46
2022-12-27T18:36:38.833Z,4.51
2022-12-27T18:40:04.817Z,4.43
2022-12-27T18:43:15.475Z,4.29
2022-12-27T18:46:38.899Z,4.26
2022-12-27T18:50:02.826Z,4.28
2022-12-27T18:53:22.660Z,4.26
2022-12-27T18:56:45.734Z,4.26
2022-12-27T19:00:21.821Z,4.21
2022-12-27T19:03:32.717Z,4.09
2022-12-27T19:07:01.802Z,4.03
2022-12-27T19:10:05.430Z,3.99
2022-12-27T19:13:53.055Z,3.95
2022-12-27T19:17:02.867Z,3.89
2022-12-27T19:20:29.959Z,3.85
2022-12-27T19:23:49.089Z,3.92
2022-12-27T19:27:15.708Z,3.88
2022-12-27T19:30:33.646Z,3.85
2022-12-27T19:33:54.671Z,3.68
2022-12-27T19:37:05.674Z,3.67
2022-12-27T19:40:14.901Z,3.71
2022-12-27T19:43:20.186Z,3.77
2022-12-27T19:46:33.254Z,3.76
2022-12-27T19:49:49.585Z,3.65
2022-12-27T19:53:13.148Z,3.58
2022-12-27T19:56:23.138Z,3.74
2022-12-27T19:59:26.107Z,3.76
2022-12-27T20:02:31.085Z,3.71
2022-12-27T20:06:14.984Z,3.66
2022-12-27T20:09:19.609Z,3.72
2022-12-27T20:12:26.006Z,3.70
2022-12-27T20:15:42.632Z,3.61
2022-12-27T20:19:06.410Z,3.60
2022-12-27T20:22:26.582Z,3.53
2022-12-27T20:25:35.209Z,3.50
2022-12-27T20:28:43.140Z,3.42
2022-12-27T20:31:59.659Z,3.33
2022-12-27T20:35:19.437Z,3.61
2022-12-27T20:38:44.117Z,3.95
2022-12-27T20:41:56.051Z,4.14
2022-12-27T20:45:20.389Z,4.08
2022-12-27T20:48:52.370Z,3.91
2022-12-27T20:52:12.554Z,3.71
2022-12-27T20:55:26.223Z,3.56
2022-12-27T20:58:49.269Z,3.53
2022-12-27T21:02:13.503Z,3.62
2022-12-27T21:05:29.434Z,3.73
2022-12-27T21:08:38.692Z,3.81
2022-12-27T21:11:54.002Z,3.81
2022-12-27T21:15:08.164Z,3.81
2022-12-27T21:18:20.847Z,3.92
2022-12-27T21:21:28.863Z,3.98
2022-12-27T21:24:34.175Z,4.02
2022-12-27T21:27:41.806Z,4.06
2022-12-27T21:31:05.300Z,3.78
2022-12-27T21:34:26.258Z,3.61
2022-12-27T21:37:48.246Z,3.60
2022-12-27T21:41:12.407Z,3.80
2022-12-27T21:44:33.271Z,3.76
2022-12-27T21:47:54.260Z,3.70
2022-12-27T21:51:19.351Z,3.69
2022-12-27T21:54:39.200Z,3.56
2022-12-27T21:57:59.213Z,3.45
2022-12-27T22:01:19.466Z,3.28
2022-12-27T22:04:42.266Z,3.24
2022-12-27T22:08:07.260Z,3.18
2022-12-27T22:11:28.167Z,3.27
2022-12-27T22:14:51.131Z,3.29
2022-12-27T22:18:08.248Z,3.25
2022-12-27T22:21:27.350Z,3.28
2022-12-27T22:24:51.148Z,3.29
2022-12-27T22:28:11.331Z,3.14
2022-12-27T22:31:20.346Z,3.12
2022-12-27T22:34:24.252Z,3.10
2022-12-27T22:37:40.923Z,3.07
2022-12-27T22:41:04.103Z,3.15
2022-12-27T22:44:28.801Z,3.13
2022-12-27T22:47:49.887Z,3.08
2022-12-27T22:51:11.904Z,3.03
2022-12-27T22:55:05.400Z,2.88
2022-12-27T22:57:57.141Z,2.82
2022-12-27T23:01:00.838Z,2.74
2022-12-27T23:04:06.491Z,2.70
2022-12-27T23:08:04.220Z,2.65
2022-12-27T23:11:26.879Z,2.59
2022-12-27T23:14:47.967Z,2.56
2022-12-27T23:18:04.139Z,2.47
2022-12-27T23:21:28.037Z,2.53
2022-12-27T23:24:54.929Z,2.44
2022-12-27T23:28:17.182Z,2.41
2022-12-27T23:31:26.961Z,2.46
2022-12-27T23:34:29.982Z,2.39
2022-12-27T23:37:34.915Z,2.43
2022-12-27T23:40:39.764Z,2.36
2022-12-27T23:43:52.864Z,2.41
2022-12-27T23:46:56.459Z,2.45
2022-12-27T23:50:17.352Z,2.35
2022-12-27T23:53:36.017Z,2.31
2022-12-27T23:56:56.968Z,2.23
